createdAt,value
2023-03-20T00:00:21.409Z,7.26
2023-03-20T00:05:30.860Z,7.13
2023-03-20T00:10:44.872Z,7.15
2023-03-20T00:15:44.571Z,7.09
2023-03-20T00:20:43.655Z,7.24
2023-03-20T00:25:44.707Z,7.00
2023-03-20T00:30:45.357Z,6.52
2023-03-20T00:35:45.978Z,6.67
2023-03-20T00:40:47.615Z,6.96
2023-03-20T00:45:56.770Z,6.85
2023-03-20T00:50:58.962Z,6.81
2023-03-20T00:56:00.393Z,6.60
2023-03-20T01:00:59.614Z,6.56
2023-03-20T01:06:01.516Z,6.74
2023-03-20T01:11:02.860Z,6.91
2023-03-20T01:16:02.743Z,6.80
2023-03-20T01:21:04.746Z,6.73
2023-03-20T01:26:07.664Z,6.33
2023-03-20T01:31:09.082Z,6.52
2023-03-20T01:36:09.987Z,6.61
2023-03-20T01:41:18.615Z,6.51
2023-03-20T01:46:40.836Z,6.45
2023-03-20T01:51:52.270Z,6.42
2023-03-20T01:56:57.826Z,6.30
2023-03-20T02:01:56.767Z,6.33
2023-03-20T02:06:57.814Z,6.16
2023-03-20T02:12:15.102Z,6.35
2023-03-20T02:17:16.505Z,6.34
2023-03-20T02:22:35.840Z,6.26
2023-03-20T02:27:41.347Z,6.23
2023-03-20T02:32:40.040Z,5.87
2023-03-20T02:37:49.409Z,6.05
2023-03-20T02:42:51.348Z,5.73
2023-03-20T02:47:50.554Z,5.39
2023-03-20T02:52:53.576Z,5.30
2023-03-20T02:57:58.577Z,5.68
2023-03-20T03:03:27.708Z,5.90
2023-03-20T03:08:28.765Z,5.87
2023-03-20T03:13:29.557Z,6.02
2023-03-20T03:18:28.607Z,5.86
2023-03-20T03:23:36.799Z,5.83
2023-03-20T03:28:41.619Z,5.74
2023-03-20T03:33:43.633Z,5.86
2023-03-20T03:38:54.321Z,5.96
2023-03-20T03:43:57.058Z,6.00
2023-03-20T03:48:55.640Z,5.93
2023-03-20T03:53:55.479Z,5.84
2023-03-20T03:58:53.879Z,5.99
2023-03-20T04:03:55.293Z,5.82
2023-03-20T04:08:53.968Z,5.76
2023-03-20T04:13:55.665Z,5.75
2023-03-20T04:18:57.135Z,5.83
2023-03-20T04:24:09.413Z,5.88
2023-03-20T04:29:10.612Z,5.88
2023-03-20T04:34:31.117Z,5.87
2023-03-20T04:39:44.961Z,5.99
2023-03-20T04:45:11.185Z,5.99
2023-03-20T04:50:14.370Z,5.85
2023-03-20T04:55:16.397Z,5.59
2023-03-20T05:00:16.836Z,5.63
2023-03-20T05:05:14.926Z,5.76
2023-03-20T05:10:15.656Z,5.61
2023-03-20T05:15:22.158Z,5.80
2023-03-20T05:20:21.626Z,5.64
2023-03-20T05:25:42.908Z,5.60
2023-03-20T05:31:04.264Z,5.69
2023-03-20T05:36:24.810Z,5.97
2023-03-20T05:41:51.751Z,6.44
2023-03-20T05:47:11.915Z,6.40
2023-03-20T05:52:34.902Z,6.59
2023-03-20T05:57:46.746Z,7.17
2023-03-20T06:03:17.288Z,7.38
2023-03-20T06:08:28.659Z,7.24
2023-03-20T06:13:28.972Z,7.45
2023-03-20T06:18:27.368Z,7.41
2023-03-20T06:23:29.727Z,7.91
2023-03-20T06:28:30.356Z,7.86
2023-03-20T06:33:35.822Z,7.83
2023-03-20T06:38:35.887Z,8.30
2023-03-20T06:43:39.671Z,8.76
2023-03-20T06:48:37.458Z,9.22
2023-03-20T06:53:39.843Z,9.66
2023-03-20T06:58:41.764Z,9.88
2023-03-20T07:03:46.784Z,9.89
2023-03-20T07:08:53.033Z,10.29
2023-03-20T07:13:54.758Z,10.41
2023-03-20T07:19:05.331Z,10.63
2023-03-20T07:24:11.931Z,11.04
2023-03-20T07:29:11.298Z,10.92
2023-03-20T07:34:11.303Z,10.88
2023-03-20T07:39:18.422Z,10.48
2023-03-20T07:44:29.788Z,10.94
2023-03-20T07:49:30.005Z,10.90
2023-03-20T07:54:31.598Z,11.15
2023-03-20T07:59:30.303Z,11.38
2023-03-20T08:04:29.160Z,11.40
2023-03-20T08:09:27.274Z,11.65
2023-03-20T08:14:29.764Z,11.77
2023-03-20T08:19:28.822Z,11.79
2023-03-20T08:24:28.142Z,11.88
2023-03-20T08:29:29.084Z,11.93
2023-03-20T08:34:28.859Z,12.01
2023-03-20T08:39:29.660Z,12.08
2023-03-20T08:44:37.118Z,11.97
2023-03-20T08:49:35.013Z,12.11
2023-03-20T08:54:35.111Z,12.23
2023-03-20T08:59:33.763Z,12.49
2023-03-20T09:04:36.752Z,12.87
2023-03-20T09:09:35.100Z,13.29
2023-03-20T09:14:38.534Z,13.66
2023-03-20T09:19:45.360Z,14.06
2023-03-20T09:24:44.056Z,14.38
2023-03-20T09:29:42.212Z,14.65
2023-03-20T09:34:43.414Z,14.86
2023-03-20T09:39:44.666Z,15.14
2023-03-20T09:45:01.512Z,14.92
2023-03-20T09:50:12.089Z,15.05
2023-03-20T09:55:15.048Z,15.07
2023-03-20T10:00:23.290Z,15.02
2023-03-20T10:05:25.624Z,14.58
2023-03-20T10:10:46.353Z,14.77
2023-03-20T10:16:10.291Z,15.00
2023-03-20T10:21:24.593Z,15.09
2023-03-20T10:26:34.207Z,15.22
2023-03-20T10:31:46.606Z,15.56
2023-03-20T10:36:49.347Z,15.75
2023-03-20T10:41:54.375Z,15.77
2023-03-20T10:46:54.891Z,15.92
2023-03-20T10:51:53.412Z,15.95
2023-03-20T10:56:53.287Z,16.29
2023-03-20T11:01:56.297Z,16.36
2023-03-20T11:07:14.628Z,16.69
2023-03-20T11:12:19.303Z,16.94
2023-03-20T11:17:17.780Z,16.82
2023-03-20T11:22:15.190Z,17.03
2023-03-20T11:27:16.205Z,17.39
2023-03-20T11:32:34.115Z,17.55
2023-03-20T11:37:35.829Z,17.89
2023-03-20T11:42:34.819Z,18.25
2023-03-20T11:47:33.928Z,18.39
2023-03-20T11:52:35.777Z,18.37
2023-03-20T11:57:35.662Z,18.33
2023-03-20T12:02:38.991Z,18.22
2023-03-20T12:07:41.807Z,18.59
2023-03-20T12:12:50.619Z,18.51
2023-03-20T12:18:12.457Z,18.10
2023-03-20T12:23:25.011Z,18.01
2023-03-20T12:28:28.703Z,17.59
2023-03-20T12:33:27.154Z,18.04
2023-03-20T12:38:41.371Z,18.38
2023-03-20T12:44:03.131Z,18.47
2023-03-20T12:49:06.616Z,18.55
2023-03-20T12:54:11.695Z,18.71
2023-03-20T12:59:27.742Z,18.68
2023-03-20T13:04:36.918Z,18.83
2023-03-20T13:09:57.618Z,18.96
2023-03-20T13:14:58.847Z,19.16
2023-03-20T13:20:16.532Z,19.23
2023-03-20T13:26:15.634Z,19.29
2023-03-20T13:31:16.363Z,19.57
2023-03-20T13:36:56.326Z,19.81
2023-03-20T13:42:01.134Z,20.09
2023-03-20T13:47:11.275Z,20.30
2023-03-20T13:52:32.067Z,20.17
2023-03-20T13:58:13.911Z,20.62
2023-03-20T14:03:45.836Z,21.07
2023-03-20T14:08:48.982Z,21.27
2023-03-20T14:13:49.174Z,21.70
2023-03-20T14:18:50.522Z,22.69
2023-03-20T14:24:04.264Z,21.79
2023-03-20T14:29:31.718Z,21.50
2023-03-20T14:34:34.055Z,21.76
2023-03-20T14:39:46.422Z,22.19
2023-03-20T14:45:06.141Z,21.87
2023-03-20T14:50:34.106Z,21.02
2023-03-20T14:55:56.621Z,20.89
2023-03-20T15:01:04.159Z,21.50
2023-03-20T15:06:06.062Z,21.39
2023-03-20T15:11:10.119Z,21.29
2023-03-20T15:16:19.440Z,22.06
2023-03-20T15:21:31.422Z,21.55
2023-03-20T15:26:42.868Z,21.53
2023-03-20T15:31:44.024Z,19.82
2023-03-20T15:36:48.586Z,19.37
2023-03-20T15:42:10.355Z,18.90
2023-03-20T15:47:15.304Z,18.61
2023-03-20T15:52:31.806Z,18.14
2023-03-20T15:57:42.070Z,18.00
2023-03-20T16:03:13.078Z,17.79
2023-03-20T16:08:27.306Z,17.26
2023-03-20T16:13:28.056Z,17.18
2023-03-20T16:18:39.040Z,17.04
2023-03-20T16:23:39.609Z,16.88
2023-03-20T16:28:39.522Z,16.66
2023-03-20T16:33:44.857Z,16.46
2023-03-20T16:38:43.460Z,16.28
2023-03-20T16:43:47.391Z,16.05
2023-03-20T16:48:48.422Z,15.92
2023-03-20T16:53:56.184Z,15.79
2023-03-20T16:58:57.172Z,15.67
2023-03-20T17:03:59.153Z,15.50
2023-03-20T17:09:16.180Z,15.35
2023-03-20T17:14:13.555Z,15.24
2023-03-20T17:19:21.683Z,15.12
2023-03-20T17:24:22.267Z,14.99
2023-03-20T17:29:24.292Z,14.89
2023-03-20T17:34:25.801Z,14.80
2023-03-20T17:39:32.659Z,14.70
2023-03-20T17:44:32.293Z,14.60
2023-03-20T17:49:35.269Z,14.50
2023-03-20T17:54:34.206Z,14.46
2023-03-20T17:59:34.254Z,14.39
2023-03-20T18:04:43.207Z,14.31
2023-03-20T18:09:45.854Z,14.22
2023-03-20T18:14:49.363Z,14.16
2023-03-20T18:19:56.106Z,14.07
2023-03-20T18:24:53.984Z,13.99
2023-03-20T18:29:57.791Z,13.94
2023-03-20T18:34:59.336Z,13.84
2023-03-20T18:40:02.446Z,13.82
2023-03-20T18:45:15.871Z,13.72
2023-03-20T18:50:23.159Z,13.68
2023-03-20T18:55:26.491Z,13.63
2023-03-20T19:00:27.213Z,13.59
2023-03-20T19:05:28.254Z,13.56
2023-03-20T19:10:29.851Z,13.50
2023-03-20T19:15:38.230Z,13.42
2023-03-20T19:20:43.541Z,13.37
2023-03-20T19:25:44.164Z,13.28
2023-03-20T19:30:42.602Z,13.21
2023-03-20T19:36:01.805Z,13.15
2023-03-20T19:41:10.102Z,13.12
2023-03-20T19:46:39.817Z,13.01
2023-03-20T19:51:44.203Z,12.91
2023-03-20T19:57:13.699Z,12.90
2023-03-20T20:02:27.514Z,12.73
2023-03-20T20:13:04.009Z,12.19
2023-03-20T20:18:06.217Z,12.28
2023-03-20T20:23:14.454Z,12.19
2023-03-20T20:28:24.572Z,11.94
2023-03-20T20:33:29.229Z,11.87
2023-03-20T20:38:48.780Z,12.11
2023-03-20T20:44:15.778Z,11.80
2023-03-20T20:49:20.149Z,11.68
2023-03-20T20:54:20.399Z,11.62
2023-03-20T20:59:23.824Z,11.41
2023-03-20T21:04:31.571Z,11.46
2023-03-20T21:09:32.612Z,11.53
2023-03-20T21:14:31.872Z,11.57
2023-03-20T21:19:36.636Z,11.19
2023-03-20T21:24:41.514Z,11.28
2023-03-20T21:30:05.277Z,11.32
2023-03-20T21:35:04.078Z,10.81
2023-03-20T21:40:06.940Z,11.00
2023-03-20T21:50:59.221Z,11.34
2023-03-20T22:02:06.508Z,11.25
2023-03-20T22:07:36.563Z,11.43
2023-03-20T22:13:13.938Z,11.23
2023-03-20T22:18:34.526Z,11.12
2023-03-20T22:24:05.755Z,10.77
2023-03-20T22:29:28.613Z,10.86
2023-03-20T22:40:15.050Z,10.27
2023-03-20T22:45:00.000Z,10.23
2023-03-20T22:50:27.797Z,10.62
2023-03-20T22:55:38.465Z,10.95
2023-03-20T23:00:46.137Z,10.10
2023-03-20T23:05:47.647Z,9.75
2023-03-20T23:10:51.044Z,9.97
2023-03-20T23:15:51.362Z,10.44
2023-03-20T23:20:52.254Z,10.36
2023-03-20T23:26:12.255Z,10.39
2023-03-20T23:31:22.785Z,10.64
2023-03-20T23:36:36.059Z,10.83
2023-03-20T23:47:19.321Z,10.00
2023-03-20T23:52:25.763Z,10.59
2023-03-20T23:57:27.279Z,10.43
